createdAt,value
2023-03-22T00:03:39.334Z,77.30
2023-03-22T00:08:03.051Z,77.64
2023-03-22T00:12:27.035Z,78.00
2023-03-22T00:16:41.200Z,77.71
2023-03-22T00:21:05.143Z,77.83
2023-03-22T00:25:28.872Z,77.90
2023-03-22T00:29:52.611Z,77.80
2023-03-22T00:34:16.336Z,78.02
2023-03-22T00:38:42.837Z,78.53
2023-03-22T00:43:07.282Z,78.52
2023-03-22T00:47:31.056Z,78.23
2023-03-22T00:51:54.829Z,78.19
2023-03-22T00:56:18.748Z,78.59
2023-03-22T01:00:42.662Z,78.91
2023-03-22T01:05:06.563Z,79.28
2023-03-22T01:09:30.384Z,78.98
2023-03-22T01:13:54.156Z,79.12
2023-03-22T01:18:18.011Z,79.08
2023-03-22T01:22:41.821Z,79.09
2023-03-22T01:27:05.832Z,79.12
2023-03-22T01:31:29.631Z,79.14
2023-03-22T01:35:53.434Z,78.91
2023-03-22T01:40:17.276Z,78.75
2023-03-22T01:44:46.980Z,78.46
2023-03-22T01:49:10.791Z,78.69
2023-03-22T01:53:34.645Z,79.09
2023-03-22T01:57:58.424Z,79.37
2023-03-22T02:02:22.258Z,79.31
2023-03-22T02:06:49.351Z,79.28
2023-03-22T02:11:13.132Z,79.03
2023-03-22T02:15:37.022Z,79.06
2023-03-22T02:20:12.813Z,79.16
2023-03-22T02:24:51.938Z,79.54
2023-03-22T02:29:23.653Z,79.29
2023-03-22T02:33:41.540Z,79.04
2023-03-22T02:38:17.429Z,79.36
2023-03-22T02:42:42.776Z,79.72
2023-03-22T02:47:09.585Z,79.96
2023-03-22T02:51:36.268Z,79.88
2023-03-22T02:56:11.782Z,80.10
2023-03-22T03:00:35.542Z,80.06
2023-03-22T03:04:59.344Z,80.21
2023-03-22T03:09:23.263Z,80.28
2023-03-22T03:13:46.755Z,80.29
2023-03-22T03:18:15.874Z,80.66
2023-03-22T03:22:58.150Z,80.88
2023-03-22T03:27:34.077Z,81.00
2023-03-22T03:31:58.007Z,81.28
2023-03-22T03:36:25.599Z,81.44
2023-03-22T03:40:49.619Z,81.69
2023-03-22T03:45:13.443Z,81.86
2023-03-22T03:49:30.958Z,81.66
2023-03-22T03:53:44.537Z,81.85
2023-03-22T03:58:08.317Z,82.01
2023-03-22T04:02:32.242Z,81.75
2023-03-22T04:06:56.063Z,81.73
2023-03-22T04:11:20.014Z,81.74
2023-03-22T04:15:43.837Z,81.86
2023-03-22T04:20:07.568Z,81.42
2023-03-22T04:24:31.352Z,81.44
2023-03-22T04:28:55.164Z,81.47
2023-03-22T04:33:18.914Z,81.52
2023-03-22T04:37:41.157Z,81.41
2023-03-22T04:41:57.679Z,81.35
2023-03-22T04:46:14.318Z,81.49
2023-03-22T04:50:30.676Z,81.30
2023-03-22T04:54:54.408Z,81.27
2023-03-22T04:59:18.268Z,81.38
2023-03-22T05:03:42.132Z,80.93
2023-03-22T05:08:05.999Z,81.33
2023-03-22T05:12:29.968Z,81.24
2023-03-22T05:17:08.902Z,81.19
2023-03-22T05:21:32.948Z,81.25
2023-03-22T05:25:56.811Z,81.31
2023-03-22T05:30:20.782Z,81.21
2023-03-22T05:34:50.222Z,81.25
2023-03-22T05:39:17.120Z,81.12
2023-03-22T05:43:39.798Z,81.10
2023-03-22T05:48:03.713Z,81.07
2023-03-22T05:52:27.577Z,81.00
2023-03-22T05:56:51.440Z,80.88
2023-03-22T06:01:15.364Z,81.23
2023-03-22T06:05:42.106Z,81.05
2023-03-22T06:10:06.042Z,81.07
2023-03-22T06:14:29.940Z,81.08
2023-03-22T06:19:00.345Z,81.04
2023-03-22T06:23:24.268Z,80.95
2023-03-22T06:27:48.205Z,80.95
2023-03-22T06:32:12.200Z,80.82
2023-03-22T06:36:35.979Z,81.08
2023-03-22T06:40:59.723Z,81.04
2023-03-22T06:45:23.478Z,81.06
2023-03-22T06:49:47.269Z,81.05
2023-03-22T06:54:11.162Z,80.80
2023-03-22T06:58:34.971Z,81.10
2023-03-22T07:02:58.495Z,80.94
2023-03-22T07:07:25.181Z,81.05
2023-03-22T07:11:52.004Z,80.83
2023-03-22T07:16:18.106Z,80.99
2023-03-22T07:20:45.156Z,80.90
2023-03-22T07:25:08.979Z,80.63
2023-03-22T07:29:31.605Z,80.71
2023-03-22T07:33:55.421Z,80.62
2023-03-22T07:38:19.344Z,80.69
2023-03-22T07:42:43.144Z,80.94
2023-03-22T07:47:12.949Z,80.80
2023-03-22T07:51:36.771Z,80.50
2023-03-22T07:56:00.684Z,80.80
2023-03-22T08:00:24.438Z,80.97
2023-03-22T08:04:51.137Z,80.73
2023-03-22T08:09:18.680Z,80.91
2023-03-22T08:13:42.766Z,80.88
2023-03-22T08:18:06.539Z,81.20
2023-03-22T08:22:30.386Z,80.78
2023-03-22T08:26:52.734Z,80.65
2023-03-22T08:31:22.332Z,80.76
2023-03-22T08:35:46.374Z,80.27
2023-03-22T08:40:10.424Z,80.15
2023-03-22T08:44:43.286Z,79.52
2023-03-22T08:49:07.290Z,79.09
2023-03-22T08:53:37.356Z,79.38
2023-03-22T08:58:05.694Z,79.13
2023-03-22T09:02:29.454Z,79.11
2023-03-22T09:06:53.291Z,79.37
2023-03-22T09:11:17.995Z,79.61
2023-03-22T09:15:42.256Z,79.59
2023-03-22T09:20:14.556Z,79.67
2023-03-22T09:24:33.676Z,79.33
2023-03-22T09:28:52.789Z,79.13
2023-03-22T09:33:16.753Z,79.11
2023-03-22T09:37:40.609Z,78.74
2023-03-22T09:42:06.985Z,78.57
2023-03-22T09:46:37.159Z,77.55
2023-03-22T09:50:49.798Z,77.35
2023-03-22T09:55:19.652Z,77.17
2023-03-22T09:59:42.753Z,76.60
2023-03-22T10:04:22.172Z,76.47
2023-03-22T10:08:53.681Z,75.89
2023-03-22T10:13:26.548Z,75.90
2023-03-22T10:17:50.287Z,75.87
2023-03-22T10:22:14.028Z,75.62
2023-03-22T10:26:37.876Z,75.27
2023-03-22T10:31:08.051Z,75.38
2023-03-22T10:35:11.553Z,75.35
2023-03-22T10:39:29.154Z,75.03
2023-03-22T10:43:52.944Z,75.08
2023-03-22T10:48:19.265Z,74.97
2023-03-22T10:52:43.560Z,74.88
2023-03-22T10:57:07.493Z,74.68
2023-03-22T11:01:31.486Z,74.69
2023-03-22T11:06:01.212Z,74.71
2023-03-22T11:10:25.024Z,74.42
2023-03-22T11:14:54.624Z,74.09
2023-03-22T11:19:17.879Z,73.56
2023-03-22T11:23:41.693Z,74.30
2023-03-22T11:28:08.041Z,74.06
2023-03-22T11:32:40.754Z,73.42
2023-03-22T11:37:04.664Z,72.51
2023-03-22T11:41:28.264Z,72.07
2023-03-22T11:45:54.881Z,72.00
2023-03-22T11:50:27.853Z,71.52
2023-03-22T11:54:51.621Z,70.70
2023-03-22T11:59:27.860Z,70.31
2023-03-22T12:03:51.789Z,70.17
2023-03-22T12:08:15.775Z,70.13
2023-03-22T12:12:42.573Z,69.55
2023-03-22T12:17:06.472Z,69.03
2023-03-22T12:21:32.897Z,68.97
2023-03-22T12:25:56.656Z,68.51
2023-03-22T12:30:20.416Z,68.47
2023-03-22T12:34:44.314Z,67.87
2023-03-22T12:39:08.230Z,67.45
2023-03-22T12:43:41.112Z,67.36
2023-03-22T12:48:20.082Z,67.42
2023-03-22T12:52:45.606Z,67.42
2023-03-22T12:57:12.952Z,67.32
2023-03-22T13:01:39.878Z,67.40
2023-03-22T13:06:04.279Z,67.53
2023-03-22T13:10:30.795Z,67.44
2023-03-22T13:14:54.675Z,67.57
2023-03-22T13:19:40.108Z,66.66
2023-03-22T13:24:06.659Z,66.41
2023-03-22T13:28:32.015Z,66.34
2023-03-22T13:33:01.895Z,65.44
2023-03-22T13:37:05.422Z,64.44
2023-03-22T13:41:47.204Z,64.51
2023-03-22T13:46:11.170Z,64.65
2023-03-22T13:50:41.087Z,63.77
2023-03-22T13:55:07.841Z,63.23
2023-03-22T13:59:34.338Z,62.82
2023-03-22T14:03:58.183Z,62.79
2023-03-22T14:08:22.137Z,62.93
2023-03-22T14:12:49.743Z,62.96
2023-03-22T14:17:19.548Z,62.91
2023-03-22T14:21:46.089Z,63.48
